Time;durP1;ratioP1;P1;durP2;ratioP2;P2;SDS_P1;SDS_P2;PMS_P1;PMS_P2;Temp;Humidity;BMP_temperature;BMP_pressure;BME280_temperature;BME280_humidity;BME280_pressure;Samples;Min_cycle;Max_cycle;Signal;HPM_P1;HPM_P2
2023/08/07 00:01:35;;;;;;;17.42;7.25;;;;;;;29.71;42.09;98778.18;1772396;81;21330;-76
2023/08/07 00:04:42;;;;;;;20.45;7.22;;;;;;;29.52;42.46;98779.40;1772542;81;21311;-76
2023/08/07 00:07:48;;;;;;;21.23;6.97;;;;;;;29.55;42.28;98779.35;1772570;81;21272;-76
2023/08/07 00:10:53;;;;;;;21.85;8.20;;;;;;;29.48;42.36;98768.56;1772751;81;21296;-77
2023/08/07 00:14:00;;;;;;;19.07;8.20;;;;;;;29.58;42.40;98773.02;1770168;81;21375;-76
2023/08/07 00:17:08;;;;;;;15.95;7.47;;;;;;;29.53;42.45;98771.77;1772518;81;21889;-76
2023/08/07 00:20:14;;;;;;;11.10;5.53;;;;;;;29.26;42.90;98765.42;1772416;81;21331;-76
2023/08/07 00:23:19;;;;;;;13.53;6.50;;;;;;;29.05;43.34;98759.48;1772407;81;21291;-76
2023/08/07 00:26:26;;;;;;;21.45;7.47;;;;;;;29.23;43.03;98763.89;1772426;81;21303;-76
2023/08/07 00:29:33;;;;;;;21.42;7.53;;;;;;;29.01;43.34;98755.09;1771426;81;21327;-75
2023/08/07 00:32:40;;;;;;;17.15;6.53;;;;;;;29.23;42.83;98754.86;1772404;81;21862;-76
2023/08/07 00:35:45;;;;;;;18.85;7.22;;;;;;;29.26;42.64;98751.93;1770937;81;21354;-76
2023/08/07 00:38:51;;;;;;;16.90;7.05;;;;;;;29.45;42.11;98752.36;1770948;81;21894;-76
2023/08/07 00:42:00;;;;;;;14.07;6.10;;;;;;;29.69;41.49;98748.09;1772653;81;21866;-75
2023/08/07 00:45:06;;;;;;;15.85;6.45;;;;;;;29.77;41.02;98738.18;1771001;81;21331;-76
2023/08/07 00:48:13;;;;;;;18.73;6.03;;;;;;;29.79;40.71;98747.72;1772406;81;21330;-76
2023/08/07 00:51:19;;;;;;;14.83;5.75;;;;;;;30.04;40.17;98738.84;1772381;81;21315;-76
2023/08/07 00:54:19;;;;;;;26.45;6.20;;;;;;;30.19;39.70;98737.42;1770928;81;21343;-76
2023/08/07 00:57:22;;;;;;;16.93;6.05;;;;;;;30.38;39.37;98736.92;1771444;81;21312;-76
2023/08/07 01:00:09;;;;;;;13.62;6.35;;;;;;;30.49;38.98;98733.94;1772210;81;21316;-77
2023/08/07 01:03:04;;;;;;;21.55;6.87;;;;;;;30.52;39.00;98743.09;1772420;81;21204;-76
2023/08/07 01:06:11;;;;;;;14.25;6.60;;;;;;;30.19;39.53;98740.23;1772411;81;21307;-76
2023/08/07 01:09:16;;;;;;;20.57;6.22;;;;;;;29.75;40.41;98732.08;1772382;81;21299;-77
2023/08/07 01:12:32;;;;;;;19.32;6.65;;;;;;;29.90;40.23;98732.64;1772574;81;21526;-76
2023/08/07 01:15:38;;;;;;;19.32;6.92;;;;;;;26.65;46.75;98721.25;1764827;81;21332;-75
2023/08/07 01:18:45;;;;;;;24.37;6.47;;;;;;;26.24;48.21;98727.03;1802415;79;21327;-75
2023/08/07 01:21:55;;;;;;;17.73;5.85;;;;;;;26.33;48.20;98728.50;1802580;79;21307;-76
2023/08/07 01:25:01;;;;;;;15.80;6.50;;;;;;;26.40;48.21;98723.30;1801547;79;21941;-76
2023/08/07 01:28:36;;;;;;;14.98;5.83;;;;;;;26.20;48.71;98726.83;1802355;79;21299;-76
2023/08/07 01:31:43;;;;;;;20.62;6.80;;;;;;;26.07;49.10;98737.54;1802288;79;21316;-76
2023/08/07 01:34:48;;;;;;;28.83;7.20;;;;;;;26.45;48.63;98756.83;1801771;79;21335;-76
2023/08/07 01:37:54;;;;;;;18.75;6.47;;;;;;;26.12;49.77;98756.20;1803311;79;21859;-76
2023/08/07 01:41:00;;;;;;;18.60;5.85;;;;;;;25.94;50.43;98749.03;1802818;79;21288;-75
2023/08/07 01:44:06;;;;;;;17.62;6.15;;;;;;;25.96;50.36;98750.94;1802369;79;21295;-75
2023/08/07 01:47:12;;;;;;;20.85;6.65;;;;;;;25.78;50.88;98752.48;1802328;79;21833;-75
2023/08/07 01:50:19;;;;;;;20.32;6.50;;;;;;;25.45;51.85;98749.80;1800857;79;21621;-76
2023/08/07 01:53:24;;;;;;;25.60;7.37;;;;;;;25.53;51.66;98748.25;1800936;79;21309;-76
2023/08/07 01:56:22;;;;;;;27.17;7.33;;;;;;;25.37;52.38;98737.95;1802335;79;21307;-76
2023/08/07 01:59:15;;;;;;;21.48;6.60;;;;;;;25.28;52.77;98734.23;1802281;79;21870;-75
2023/08/07 02:02:21;;;;;;;20.00;6.50;;;;;;;25.32;52.58;98740.86;1802656;79;21850;-75
2023/08/07 02:05:27;;;;;;;18.80;5.90;;;;;;;25.45;52.32;98745.59;1802121;79;21970;-75
2023/08/07 02:08:34;;;;;;;14.28;5.67;;;;;;;25.91;51.68;98751.05;1802443;79;21296;-76
2023/08/07 02:11:38;;;;;;;21.33;6.37;;;;;;;25.19;53.41;98753.13;1802326;79;21300;-76
2023/08/07 02:14:45;;;;;;;20.45;6.53;;;;;;;25.35;53.13;98753.64;1800895;79;21327;-75
2023/08/07 02:17:51;;;;;;;17.87;6.97;;;;;;;25.20;53.79;98753.95;1809525;79;21876;-76
2023/08/07 02:20:58;;;;;;;20.43;6.50;;;;;;;26.55;50.22;98748.16;1811131;79;21291;-75
2023/08/07 02:24:04;;;;;;;26.27;7.03;;;;;;;27.01;48.91;98735.15;1811076;79;21306;-76
2023/08/07 02:27:11;;;;;;;26.68;6.08;;;;;;;27.22;48.10;98738.23;1811121;79;21326;-76
2023/08/07 02:30:17;;;;;;;25.02;7.08;;;;;;;27.40;47.66;98729.88;1809704;79;21933;-76
2023/08/07 02:33:24;;;;;;;16.02;6.62;;;;;;;27.67;46.97;98742.84;1809576;79;21865;-75
2023/08/07 02:36:30;;;;;;;26.52;7.60;;;;;;;27.68;46.96;98736.06;1809990;79;21874;-77
2023/08/07 02:39:35;;;;;;;32.03;8.33;;;;;;;27.86;46.50;98727.95;1811098;79;21319;-76
2023/08/07 02:42:41;;;;;;;19.30;7.83;;;;;;;28.03;46.19;98732.73;1811124;79;21303;-76
2023/08/07 02:45:47;;;;;;;26.20;8.03;;;;;;;28.02;46.22;98733.31;1810522;79;21890;-76
2023/08/07 02:48:53;;;;;;;32.40;9.73;;;;;;;28.17;45.96;98729.77;1811078;79;21866;-76
2023/08/07 02:52:00;;;;;;;52.73;13.20;;;;;;;28.21;45.75;98727.95;1811034;79;21858;-75
2023/08/07 02:55:10;;;;;;;31.73;14.50;;;;;;;28.03;46.27;98724.30;1810968;79;21293;-76
2023/08/07 02:58:14;;;;;;;41.53;13.55;;;;;;;28.41;45.68;98732.09;1811132;79;21323;-75
2023/08/07 03:01:21;;;;;;;38.98;15.23;;;;;;;28.31;46.02;98732.41;1811769;79;21842;-75
2023/08/07 03:04:27;;;;;;;50.70;18.20;;;;;;;28.31;46.08;98743.66;1811253;79;21299;-76
2023/08/07 03:07:34;;;;;;;61.00;21.55;;;;;;;28.56;45.78;98743.41;1811261;79;21319;-75
2023/08/07 03:10:40;;;;;;;58.95;25.68;;;;;;;28.57;45.77;98740.86;1809787;79;22529;-76
2023/08/07 03:13:49;;;;;;;84.20;28.77;;;;;;;28.61;45.75;98742.67;1809693;79;21893;-75
2023/08/07 03:16:54;;;;;;;81.50;30.27;;;;;;;28.70;45.56;98742.08;1808668;79;21334;-76
2023/08/07 03:20:00;;;;;;;84.92;32.20;;;;;;;29.08;45.01;98743.30;1802466;79;21324;-76
2023/08/07 03:23:09;;;;;;;80.05;29.27;;;;;;;29.00;44.99;98745.00;1800958;79;21312;-76
2023/08/07 03:26:20;;;;;;;72.17;27.65;;;;;;;29.13;44.54;98746.78;1801928;79;21323;-76
2023/08/07 03:29:25;;;;;;;62.78;21.97;;;;;;;29.27;44.49;98751.61;1802654;79;21292;-75
2023/08/07 03:32:31;;;;;;;46.95;17.62;;;;;;;26.81;50.32;98753.09;1801559;79;21323;-75
2023/08/07 03:35:38;;;;;;;40.17;14.03;;;;;;;26.94;50.40;98747.39;1802382;79;22654;-75
2023/08/07 03:38:45;;;;;;;32.58;12.37;;;;;;;26.18;52.32;98744.55;1801056;79;21886;-76
2023/08/07 03:41:51;;;;;;;29.55;11.78;;;;;;;26.83;50.85;98733.41;1802449;79;21890;-76
2023/08/07 03:44:51;;;;;;;28.17;12.53;;;;;;;26.36;51.71;98731.50;1802557;79;21296;-75
2023/08/07 03:47:58;;;;;;;34.65;12.18;;;;;;;26.37;52.02;98722.52;1800969;79;21328;-76
2023/08/07 03:51:16;;;;;;;25.50;11.30;;;;;;;26.41;51.46;98719.34;1802368;79;21311;-76
2023/08/07 03:54:24;;;;;;;31.23;12.85;;;;;;;26.57;51.01;98719.80;1802337;79;21774;-76
2023/08/07 03:57:29;;;;;;;30.92;13.05;;;;;;;26.65;51.07;98719.84;1801332;79;21332;-76
2023/08/07 04:00:38;;;;;;;33.80;12.63;;;;;;;26.68;51.50;98726.23;1803008;79;21339;-77
2023/08/07 04:03:44;;;;;;;26.90;10.98;;;;;;;27.07;50.47;98730.22;1801134;79;21358;-76
2023/08/07 04:06:51;;;;;;;39.65;14.85;;;;;;;29.45;45.35;98730.39;1802044;79;21866;-76
2023/08/07 04:09:56;;;;;;;38.45;14.75;;;;;;;29.96;43.40;98731.26;1800942;79;21299;-76
2023/08/07 04:13:24;;;;;;;45.63;19.10;;;;;;;30.93;41.68;98718.21;1860648;76;22287;-77
2023/08/07 04:16:31;;;;;;;50.08;20.97;;;;;;;30.97;41.89;98716.93;1770763;81;21863;-76
2023/08/07 04:19:38;;;;;;;53.50;19.15;;;;;;;30.97;42.18;98735.28;1795494;79;21343;-76
2023/08/07 04:22:44;;;;;;;48.50;18.30;;;;;;;30.44;43.87;98729.33;1763158;80;22041;-76
2023/08/07 04:25:51;;;;;;;47.43;17.95;;;;;;;29.92;44.63;98745.80;1759803;80;21890;-76
2023/08/07 04:28:58;;;;;;;40.73;17.42;;;;;;;30.43;43.97;98744.58;1791047;80;21850;-76
2023/08/07 04:32:03;;;;;;;39.45;15.90;;;;;;;30.62;43.74;98739.84;1783752;79;21342;-77
2023/08/07 04:35:10;;;;;;;31.80;13.72;;;;;;;30.70;43.92;98741.75;1790095;79;21272;-77
2023/08/07 04:38:17;;;;;;;35.25;14.05;;;;;;;31.00;42.87;98728.33;1806925;78;21291;-77
2023/08/07 04:41:24;;;;;;;34.13;13.72;;;;;;;31.09;42.09;98728.23;1804954;79;21315;-77
2023/08/07 04:44:31;;;;;;;39.38;15.90;;;;;;;31.16;42.82;98741.19;1775341;80;21369;-76
2023/08/07 04:47:37;;;;;;;25.95;13.85;;;;;;;31.87;41.78;98755.50;1732526;82;21850;-77
2023/08/07 04:50:43;;;;;;;41.33;13.75;;;;;;;32.04;41.19;98745.34;1702237;83;21310;-76
2023/08/07 04:53:50;;;;;;;27.62;13.93;;;;;;;32.23;41.06;98748.09;1734099;80;21346;-77
2023/08/07 04:56:56;;;;;;;26.10;14.18;;;;;;;32.27;41.03;98746.20;1758359;80;21322;-76
2023/08/07 05:00:03;;;;;;;26.87;13.93;;;;;;;32.68;40.49;98749.27;1770244;79;22036;-76
2023/08/07 05:03:09;;;;;;;34.15;13.08;;;;;;;33.04;40.26;98770.12;1761704;80;21764;-77
2023/08/07 05:06:15;;;;;;;31.95;14.85;;;;;;;32.95;41.06;98756.72;1736045;82;22566;-78
2023/08/07 05:09:22;;;;;;;33.63;13.88;;;;;;;32.95;41.06;98756.72;1758713;80;21340;-78
2023/08/07 05:12:28;;;;;;;27.95;12.40;;;;;;;33.19;40.99;98769.30;1795815;79;21913;-76
2023/08/07 05:15:33;;;;;;;31.15;13.22;;;;;;;33.11;40.52;98766.05;1763260;80;21327;-78
2023/08/07 05:18:38;;;;;;;31.75;12.68;;;;;;;33.22;40.79;98770.00;1724366;81;21314;-77
2023/08/07 05:21:50;;;;;;;32.48;11.40;;;;;;;33.22;40.79;98770.00;1797496;78;21283;-77
2023/08/07 05:24:54;;;;;;;21.90;10.43;;;;;;;33.61;40.62;98765.14;1800876;79;21249;-78
2023/08/07 05:27:59;;;;;;;31.48;10.68;;;;;;;34.00;40.38;98776.03;1804247;78;21875;-77
2023/08/07 05:31:05;;;;;;;26.23;11.45;;;;;;;30.64;47.87;98774.78;1817612;79;21284;-78
2023/08/07 05:34:12;;;;;;;19.40;10.05;;;;;;;30.11;50.97;98774.92;1802860;79;21897;-78
2023/08/07 05:37:18;;;;;;;18.80;10.23;;;;;;;30.16;52.08;98769.96;1782167;79;22124;-77
2023/08/07 05:40:25;;;;;;;24.57;12.13;;;;;;;30.15;52.61;98770.28;1779571;79;21314;-77
2023/08/07 05:43:31;;;;;;;23.25;13.43;;;;;;;32.08;48.18;98766.64;1803013;79;21338;-78
2023/08/07 05:46:38;;;;;;;32.28;13.20;;;;;;;32.79;46.73;98771.64;1801763;79;21205;-78
2023/08/07 05:49:44;;;;;;;23.07;12.63;;;;;;;33.10;47.25;98766.42;1748962;80;21875;-77
2023/08/07 05:52:51;;;;;;;19.45;11.45;;;;;;;33.12;49.80;98766.86;1754254;80;21307;-76
2023/08/07 05:55:59;;;;;;;17.07;11.15;;;;;;;30.83;57.80;98762.41;1716495;83;21299;-77
2023/08/07 05:59:05;;;;;;;17.82;9.35;;;;;;;31.69;57.24;98759.13;1748000;82;21339;-77
2023/08/07 06:02:11;;;;;;;18.35;7.87;;;;;;;32.87;53.52;98773.23;1749049;80;21972;-76
2023/08/07 06:05:17;;;;;;;15.60;7.97;;;;;;;33.44;50.66;98765.73;1787057;79;21291;-76
2023/08/07 06:08:22;;;;;;;21.95;8.38;;;;;;;33.70;49.75;98762.34;1717218;82;21294;-76
2023/08/07 06:11:29;;;;;;;16.37;7.78;;;;;;;33.75;49.06;98762.05;1736233;81;21292;-76
2023/08/07 06:14:35;;;;;;;14.83;6.97;;;;;;;32.46;51.44;98760.55;1778919;79;21329;-77
2023/08/07 06:17:41;;;;;;;20.70;7.47;;;;;;;31.18;57.42;98758.59;1774214;79;22584;-77
2023/08/07 06:20:47;;;;;;;17.73;7.33;;;;;;;31.15;58.14;98752.26;1791713;79;21668;-77
2023/08/07 06:23:53;;;;;;;14.45;7.37;;;;;;;31.21;57.94;98748.61;1792457;79;21310;-77
2023/08/07 06:26:59;;;;;;;18.37;6.90;;;;;;;31.34;57.64;98739.02;1790829;79;21305;-77
2023/08/07 06:30:05;;;;;;;16.48;7.37;;;;;;;31.51;57.20;98745.82;1792803;79;21291;-78
2023/08/07 06:33:12;;;;;;;20.48;7.72;;;;;;;31.61;57.70;98755.83;1786482;79;21318;-76
2023/08/07 06:36:18;;;;;;;13.72;6.97;;;;;;;32.80;54.80;98767.62;1783801;79;21297;-77
2023/08/07 06:39:24;;;;;;;22.02;7.53;;;;;;;32.28;54.88;98764.25;1783281;79;21346;-76
2023/08/07 06:42:29;;;;;;;17.57;8.08;;;;;;;33.04;52.58;98769.52;1782051;79;21874;-77
2023/08/07 06:45:35;;;;;;;16.25;6.47;;;;;;;33.92;50.30;98770.74;1795356;79;21286;-76
2023/08/07 06:48:40;;;;;;;13.53;7.12;;;;;;;31.96;55.00;98776.58;1791532;79;21337;-77
2023/08/07 06:51:45;;;;;;;15.50;6.60;;;;;;;32.35;55.01;98774.95;1783689;77;21365;-77
2023/08/07 06:54:52;;;;;;;22.22;7.17;;;;;;;31.93;57.01;98768.20;1790845;79;21298;-75
2023/08/07 06:57:57;;;;;;;20.15;7.70;;;;;;;33.97;50.50;98767.68;1796190;79;22272;-76
2023/08/07 07:01:03;;;;;;;22.20;7.42;;;;;;;34.51;49.04;98775.38;1786681;79;21326;-77
2023/08/07 07:04:09;;;;;;;17.40;7.35;;;;;;;34.84;48.35;98778.28;1792487;79;21219;-77
2023/08/07 07:07:15;;;;;;;22.40;6.92;;;;;;;34.90;48.15;98778.80;1781303;79;21335;-77
2023/08/07 07:10:34;;;;;;;20.20;7.05;;;;;;;35.23;47.09;98774.80;1791425;79;21322;-78
2023/08/07 07:13:41;;;;;;;15.00;6.55;;;;;;;35.67;46.57;98782.91;1792065;79;21326;-79
2023/08/07 07:16:47;;;;;;;14.47;6.65;;;;;;;33.46;52.11;98771.05;1785307;78;21346;-79
2023/08/07 07:19:56;;;;;;;13.90;6.33;;;;;;;34.03;50.96;98777.53;1780981;79;21310;-77
2023/08/07 07:23:03;;;;;;;16.27;6.03;;;;;;;33.80;51.67;98780.80;1780480;78;21264;-78
2023/08/07 07:26:09;;;;;;;13.20;5.75;;;;;;;33.68;52.89;98785.14;1784955;79;21326;-78
2023/08/07 07:29:15;;;;;;;9.70;5.20;;;;;;;33.88;51.55;98788.30;1776500;79;21689;-77
2023/08/07 07:32:20;;;;;;;13.50;5.40;;;;;;;34.01;51.18;98791.25;1789335;79;21275;-78
2023/08/07 07:35:28;;;;;;;9.73;4.92;;;;;;;33.88;52.23;98787.44;1793304;79;21203;-77
2023/08/07 07:38:35;;;;;;;15.58;5.80;;;;;;;35.37;47.95;98796.97;1794961;79;21813;-78
2023/08/07 07:41:43;;;;;;;12.90;5.47;;;;;;;34.73;49.42;98807.89;1777356;79;21292;-77
2023/08/07 07:44:49;;;;;;;14.38;5.17;;;;;;;34.92;49.45;98807.66;1793874;79;21300;-79
2023/08/07 07:47:55;;;;;;;11.70;5.50;;;;;;;35.08;48.74;98814.09;1783855;78;21877;-79
2023/08/07 07:51:11;;;;;;;12.58;4.55;;;;;;;33.99;50.02;98819.77;1788265;79;21314;-77
2023/08/07 07:54:18;;;;;;;16.35;5.15;;;;;;;33.05;52.55;98811.41;1789967;79;21287;-79
2023/08/07 07:57:24;;;;;;;10.82;4.78;;;;;;;32.74;53.27;98814.33;1783132;79;21861;-79
2023/08/07 08:00:31;;;;;;;12.70;5.10;;;;;;;32.58;55.00;98819.13;1787555;79;21284;-79
2023/08/07 08:03:37;;;;;;;22.37;5.65;;;;;;;32.59;54.14;98819.95;1795046;79;21303;-78
2023/08/07 08:06:43;;;;;;;11.93;4.80;;;;;;;33.31;52.73;98823.06;1778400;79;21323;-77
2023/08/07 08:09:49;;;;;;;11.22;4.15;;;;;;;32.68;53.84;98814.96;1789392;79;21940;-77
2023/08/07 08:13:05;;;;;;;9.90;4.28;;;;;;;32.67;54.25;98818.98;1794077;79;21122;-77
2023/08/07 08:16:10;;;;;;;15.38;5.05;;;;;;;32.77;53.57;98817.05;1783313;79;22477;-77
2023/08/07 08:19:16;;;;;;;9.70;4.17;;;;;;;32.89;53.09;98821.82;1786415;79;21383;-77
2023/08/07 08:22:22;;;;;;;7.08;3.42;;;;;;;32.95;51.76;98825.50;1784830;79;21287;-78
2023/08/07 08:25:29;;;;;;;9.53;3.80;;;;;;;32.91;51.02;98839.32;1779294;79;22669;-77
2023/08/07 08:28:36;;;;;;;11.45;4.08;;;;;;;32.87;51.71;98841.19;1784393;79;21662;-77
2023/08/07 08:31:41;;;;;;;11.48;3.45;;;;;;;33.96;49.69;98851.09;1785795;79;21878;-78
2023/08/07 08:34:49;;;;;;;9.98;3.30;;;;;;;34.52;47.30;98860.75;1783368;78;21870;-78
2023/08/07 08:37:56;;;;;;;9.83;3.17;;;;;;;33.17;48.87;98869.98;1782177;79;21338;-77
2023/08/07 08:41:01;;;;;;;9.20;3.58;;;;;;;32.95;49.24;98868.56;1787302;78;21314;-78
2023/08/07 08:44:06;;;;;;;18.07;4.28;;;;;;;32.98;49.81;98870.66;1792827;78;21580;-78
2023/08/07 08:47:12;;;;;;;7.72;4.03;;;;;;;33.27;49.00;98866.05;1772037;79;21334;-77
2023/08/07 08:50:23;;;;;;;10.20;3.25;;;;;;;32.83;50.44;98870.21;1767814;79;21307;-78
2023/08/07 08:53:28;;;;;;;6.65;3.27;;;;;;;33.05;50.98;98868.05;1790653;77;21357;-77
2023/08/07 08:56:35;;;;;;;7.65;3.37;;;;;;;32.75;51.54;98862.72;1790785;79;21307;-77
2023/08/07 08:59:42;;;;;;;11.88;3.00;;;;;;;33.77;47.85;98870.83;1785224;79;21913;-77
2023/08/07 09:02:49;;;;;;;8.63;3.10;;;;;;;34.28;43.74;98872.33;1784260;79;21310;-78
2023/08/07 09:05:55;;;;;;;8.03;3.55;;;;;;;34.63;43.38;98876.62;1779347;79;21300;-78
2023/08/07 09:09:00;;;;;;;12.63;3.62;;;;;;;34.79;42.38;98876.56;1792944;78;21347;-78
2023/08/07 09:12:06;;;;;;;13.85;4.72;;;;;;;34.98;40.48;98882.88;1800085;79;21306;-77
2023/08/07 09:15:13;;;;;;;8.45;3.35;;;;;;;33.52;43.97;98874.44;1794693;79;21332;-76
2023/08/07 09:18:21;;;;;;;12.07;4.28;;;;;;;33.03;45.32;98876.06;1759253;80;22388;-76
2023/08/07 09:21:27;;;;;;;7.95;4.10;;;;;;;33.78;44.79;98874.73;1788481;78;21215;-78
2023/08/07 09:24:35;;;;;;;8.95;3.90;;;;;;;33.14;46.84;98874.98;1793236;79;21122;-77
2023/08/07 09:27:40;;;;;;;6.25;3.83;;;;;;;33.11;45.35;98891.27;1793339;79;21311;-78
2023/08/07 09:30:47;;;;;;;7.45;3.65;;;;;;;33.09;44.12;98890.81;1785934;79;21284;-78
2023/08/07 09:34:00;;;;;;;7.25;3.40;;;;;;;32.99;43.11;98885.08;1749793;79;21297;-78
2023/08/07 09:37:07;;;;;;;10.03;3.70;;;;;;;32.76;42.94;98889.83;1773347;79;21366;-77
2023/08/07 09:40:16;;;;;;;12.15;4.42;;;;;;;32.72;43.81;98900.22;1793476;79;21303;-79
2023/08/07 09:43:29;;;;;;;14.78;4.97;;;;;;;33.00;44.93;98900.88;1794224;79;21327;-77
2023/08/07 09:46:37;;;;;;;11.00;4.78;;;;;;;32.93;44.66;98898.64;1799386;79;21303;-77
2023/08/07 09:49:44;;;;;;;7.45;4.30;;;;;;;33.04;45.72;98910.30;1789660;78;21350;-78
2023/08/07 09:52:58;;;;;;;10.85;5.10;;;;;;;33.11;44.74;98902.00;1786121;79;21325;-77
2023/08/07 09:56:04;;;;;;;9.03;4.55;;;;;;;33.11;45.42;98906.25;1781596;79;21920;-77
2023/08/07 09:59:09;;;;;;;21.07;5.45;;;;;;;33.23;45.75;98908.22;1786064;79;21328;-78
2023/08/07 10:02:15;;;;;;;8.23;4.62;;;;;;;33.27;45.44;98904.90;1791316;79;22278;-78
2023/08/07 10:05:22;;;;;;;16.87;5.40;;;;;;;33.26;45.66;98905.47;1706131;83;21663;-77
2023/08/07 10:08:29;;;;;;;7.17;4.37;;;;;;;33.35;44.20;98908.73;1748511;82;21928;-77
2023/08/07 10:11:34;;;;;;;12.50;4.60;;;;;;;33.68;42.56;98919.80;1729885;82;21398;-76
2023/08/07 10:14:40;;;;;;;9.78;4.47;;;;;;;33.38;43.86;98923.61;1727428;82;22250;-78
2023/08/07 10:17:46;;;;;;;8.60;3.65;;;;;;;33.47;42.08;98918.64;1735508;81;21593;-77
2023/08/07 10:20:52;;;;;;;8.05;3.55;;;;;;;33.44;42.36;98932.10;1761768;80;21331;-77
2023/08/07 10:24:01;;;;;;;5.72;3.62;;;;;;;33.45;41.34;98930.91;1766194;79;21889;-76
2023/08/07 10:27:06;;;;;;;7.30;3.60;;;;;;;33.41;41.61;98928.56;1789058;79;21309;-77
2023/08/07 10:30:17;;;;;;;8.48;3.08;;;;;;;33.81;40.97;98920.78;1787920;79;21385;-77
2023/08/07 10:33:24;;;;;;;6.62;2.98;;;;;;;33.51;39.66;98928.06;1783621;79;21287;-78
2023/08/07 10:36:31;;;;;;;6.83;3.10;;;;;;;33.48;39.38;98924.53;1809976;78;21322;-77
2023/08/07 10:39:38;;;;;;;4.83;2.85;;;;;;;33.47;39.21;98925.72;1761434;80;21356;-77
2023/08/07 10:43:15;;;;;;;9.05;2.90;;;;;;;33.31;38.27;98934.98;1759639;79;21916;-77
2023/08/07 10:46:30;;;;;;;4.47;3.05;;;;;;;33.22;38.66;98945.64;1786375;79;21308;-77
2023/08/07 10:49:45;;;;;;;8.65;3.02;;;;;;;33.22;38.37;98938.56;1783197;79;21298;-77
2023/08/07 10:52:51;;;;;;;5.97;2.80;;;;;;;33.31;37.89;98936.40;1789994;79;21298;-76
2023/08/07 10:55:59;;;;;;;5.03;2.35;;;;;;;33.33;38.20;98938.27;1790268;79;21298;-76
2023/08/07 10:59:05;;;;;;;4.83;2.20;;;;;;;33.35;35.04;98944.16;1782930;79;21863;-76
2023/08/07 11:02:11;;;;;;;6.87;2.55;;;;;;;33.16;35.52;98954.14;1759065;81;21335;-76
2023/08/07 11:05:17;;;;;;;3.17;2.00;;;;;;;33.38;35.17;98961.86;1728335;81;21361;-76
2023/08/07 11:08:23;;;;;;;3.85;2.15;;;;;;;33.09;36.48;98960.20;1777747;79;21320;-76
2023/08/07 11:11:23;;;;;;;6.83;2.42;;;;;;;32.98;37.22;98947.12;1781013;79;21310;-77
2023/08/07 11:14:29;;;;;;;8.13;2.45;;;;;;;33.15;36.17;98959.59;1788232;77;21376;-77
2023/08/07 11:17:36;;;;;;;3.67;2.40;;;;;;;33.62;35.80;98959.53;1785757;79;21323;-76
2023/08/07 11:20:43;;;;;;;8.20;2.70;;;;;;;33.78;36.66;98966.89;1793096;79;21335;-76
2023/08/07 11:23:50;;;;;;;6.53;2.90;;;;;;;34.09;36.70;98963.87;1801335;79;21328;-76
2023/08/07 11:26:57;;;;;;;7.05;3.10;;;;;;;34.21;37.18;98958.72;1804112;79;21319;-76
2023/08/07 11:30:04;;;;;;;14.47;3.42;;;;;;;34.40;37.04;98962.22;1800578;79;21310;-77
2023/08/07 11:33:11;;;;;;;11.30;3.60;;;;;;;34.59;36.77;98960.89;1801874;79;21889;-76
2023/08/07 11:36:24;;;;;;;6.62;3.30;;;;;;;33.23;38.78;98960.03;1801821;79;21156;-75
2023/08/07 11:39:31;;;;;;;7.17;3.17;;;;;;;33.36;38.56;98967.91;1809108;79;21223;-75
2023/08/07 11:42:38;;;;;;;11.00;3.37;;;;;;;33.13;38.93;98970.46;1803212;79;21310;-76
2023/08/07 11:45:43;;;;;;;10.82;3.40;;;;;;;32.96;39.44;98959.41;1785006;79;21354;-77
2023/08/07 11:48:50;;;;;;;6.55;2.42;;;;;;;32.98;39.29;98964.96;1777215;79;21854;-76
2023/08/07 11:51:56;;;;;;;7.42;2.60;;;;;;;33.09;38.81;98970.94;1778710;79;21326;-75
2023/08/07 11:55:02;;;;;;;6.55;2.95;;;;;;;33.00;38.55;98967.42;1785244;78;21264;-76
2023/08/07 11:58:10;;;;;;;3.33;2.45;;;;;;;33.00;37.83;98978.75;1763055;79;21358;-76
2023/08/07 12:01:23;;;;;;;4.67;2.52;;;;;;;33.58;36.99;98975.02;1764711;79;21307;-76
2023/08/07 12:04:30;;;;;;;10.40;3.10;;;;;;;33.13;37.47;98977.55;1788692;79;21306;-76
2023/08/07 12:07:36;;;;;;;7.95;3.10;;;;;;;33.46;36.08;98982.17;1790108;79;21358;-76
2023/08/07 12:10:43;;;;;;;6.42;2.75;;;;;;;33.52;36.36;98980.72;1803175;79;21349;-77
2023/08/07 12:13:50;;;;;;;7.55;3.30;;;;;;;33.53;36.57;98986.62;1779815;79;21914;-77
2023/08/07 12:16:55;;;;;;;6.42;2.75;;;;;;;33.53;37.44;98973.86;1791484;79;21926;-77
2023/08/07 12:20:01;;;;;;;7.72;3.00;;;;;;;33.50;37.51;98980.24;1759878;80;22605;-76
2023/08/07 12:23:06;;;;;;;6.97;3.80;;;;;;;33.58;37.89;98975.84;1787302;78;21289;-76
2023/08/07 12:26:12;;;;;;;13.45;3.70;;;;;;;33.58;37.17;98980.69;1782888;77;21356;-76
2023/08/07 12:29:17;;;;;;;6.30;3.10;;;;;;;33.54;37.35;98977.74;1781391;79;21640;-76
2023/08/07 12:32:23;;;;;;;10.20;3.05;;;;;;;32.88;38.28;98985.81;1792495;79;21327;-76
2023/08/07 12:35:29;;;;;;;8.65;3.25;;;;;;;32.79;38.41;98991.05;1760623;79;21984;-76
2023/08/07 12:38:37;;;;;;;12.13;3.25;;;;;;;32.88;37.86;98985.23;1688820;82;21395;-76
2023/08/07 12:41:43;;;;;;;8.40;3.60;;;;;;;32.86;37.87;98991.03;1791560;79;21326;-77
2023/08/07 12:44:50;;;;;;;14.38;3.55;;;;;;;32.74;37.88;98990.44;1765252;80;21378;-77
2023/08/07 12:47:58;;;;;;;5.55;3.20;;;;;;;33.04;38.02;98990.42;1755452;80;21371;-76
2023/08/07 12:51:05;;;;;;;10.53;3.98;;;;;;;33.40;35.95;98994.91;1796647;79;21917;-76
2023/08/07 12:54:11;;;;;;;11.25;3.58;;;;;;;32.97;36.57;99002.11;1796040;79;21324;-77
2023/08/07 12:57:17;;;;;;;9.80;3.85;;;;;;;33.24;36.67;98997.09;1714970;82;21378;-76
2023/08/07 13:00:25;;;;;;;12.75;4.15;;;;;;;33.32;36.21;98996.13;1791616;79;21378;-77
2023/08/07 13:03:32;;;;;;;8.73;4.00;;;;;;;33.45;35.59;99003.17;1789200;79;21386;-77
2023/08/07 13:06:37;;;;;;;7.05;3.33;;;;;;;33.19;34.91;99008.67;1795367;79;21359;-77
2023/08/07 13:09:42;;;;;;;12.10;3.02;;;;;;;33.03;34.39;99014.27;1774246;79;21884;-77
2023/08/07 13:12:50;;;;;;;4.40;2.72;;;;;;;33.13;34.64;99010.71;1789715;79;21196;-76
2023/08/07 13:15:55;;;;;;;9.60;2.12;;;;;;;33.15;34.03;99016.83;1764381;80;21326;-77
2023/08/07 13:19:01;;;;;;;5.28;2.20;;;;;;;33.21;33.69;99017.63;1766314;80;21327;-77
2023/08/07 13:22:07;;;;;;;5.65;2.12;;;;;;;32.92;33.96;99017.94;1760278;80;21355;-76
2023/08/07 13:25:12;;;;;;;8.53;2.55;;;;;;;33.10;34.34;99017.08;1764233;80;21390;-76
2023/08/07 13:28:19;;;;;;;4.58;2.00;;;;;;;33.25;34.14;99015.73;1757943;80;21235;-77
2023/08/07 13:31:25;;;;;;;4.67;1.80;;;;;;;33.32;33.87;99023.05;1760367;81;21319;-76
2023/08/07 13:34:30;;;;;;;6.75;2.00;;;;;;;33.05;33.07;99018.16;1765556;81;21909;-77
2023/08/07 13:37:37;;;;;;;3.05;1.70;;;;;;;33.17;33.78;99020.97;1765189;79;21298;-76
2023/08/07 13:40:45;;;;;;;3.30;1.57;;;;;;;33.20;33.13;99025.90;1762323;80;21945;-76
2023/08/07 13:43:52;;;;;;;8.68;1.50;;;;;;;32.90;32.91;99027.36;1759521;80;21329;-77
2023/08/07 13:46:59;;;;;;;2.25;1.75;;;;;;;32.28;32.66;99042.08;1768111;80;21343;-76
2023/08/07 13:50:04;;;;;;;6.58;1.77;;;;;;;32.60;33.17;99041.75;1761473;80;21318;-76
2023/08/07 13:53:11;;;;;;;2.25;1.47;;;;;;;32.51;33.52;99045.28;1765601;80;21313;-76
2023/08/07 13:56:16;;;;;;;1.52;1.40;;;;;;;32.49;32.90;99043.41;1758252;80;21363;-76
2023/08/07 13:59:22;;;;;;;4.90;1.75;;;;;;;32.29;32.87;99038.88;1770213;81;21331;-77
2023/08/07 14:02:30;;;;;;;3.40;1.50;;;;;;;32.31;33.17;99044.18;1759571;80;21332;-76
2023/08/07 14:05:38;;;;;;;8.93;2.17;;;;;;;32.29;33.57;99037.47;1766646;80;22727;-77
2023/08/07 14:08:57;;;;;;;3.55;1.70;;;;;;;32.32;32.30;99051.48;1764374;80;21905;-77
2023/08/07 14:12:21;;;;;;;9.23;1.80;;;;;;;31.92;32.49;99059.77;1764846;80;21354;-76
2023/08/07 14:15:26;;;;;;;1.75;1.50;;;;;;;31.88;32.68;99061.05;1759528;80;21331;-77
2023/08/07 14:18:32;;;;;;;10.40;2.05;;;;;;;32.17;31.79;99055.00;1761991;80;21335;-77
2023/08/07 14:21:38;;;;;;;15.30;2.00;;;;;;;32.17;31.21;99052.99;1769218;80;21342;-77
2023/08/07 14:24:45;;;;;;;5.03;1.60;;;;;;;32.29;31.47;99065.76;1765894;80;21338;-76
2023/08/07 14:27:51;;;;;;;7.90;2.22;;;;;;;32.13;31.78;99075.25;1766054;80;21362;-76
2023/08/07 14:30:59;;;;;;;10.98;2.10;;;;;;;32.12;31.83;99074.44;1766963;80;21331;-77